sensor_id;sensor_type;location;lat;lon;timestamp;temperature;humidity
20777;DHT22;10548;47.504;8.248;2023-03-23T00:01:09;11.40;98.90
20777;DHT22;10548;47.504;8.248;2023-03-23T00:03:49;11.50;98.60
20777;DHT22;10548;47.504;8.248;2023-03-23T00:06:20;11.60;98.50
20777;DHT22;10548;47.504;8.248;2023-03-23T00:08:48;11.50;98.90
20777;DHT22;10548;47.504;8.248;2023-03-23T00:11:20;11.50;98.90
20777;DHT22;10548;47.504;8.248;2023-03-23T00:13:48;11.40;99.90
20777;DHT22;10548;47.504;8.248;2023-03-23T00:16:22;11.30;99.90
20777;DHT22;10548;47.504;8.248;2023-03-23T00:19:01;11.30;99.90
20777;DHT22;10548;47.504;8.248;2023-03-23T00:21:30;11.20;99.90
20777;DHT22;10548;47.504;8.248;2023-03-23T00:24:18;11.30;99.90
20777;DHT22;10548;47.504;8.248;2023-03-23T00:26:46;11.20;99.90
20777;DHT22;10548;47.504;8.248;2023-03-23T00:29:21;11.20;99.90
20777;DHT22;10548;47.504;8.248;2023-03-23T00:31:49;11.20;99.90
20777;DHT22;10548;47.504;8.248;2023-03-23T00:34:20;11.30;99.90
20777;DHT22;10548;47.504;8.248;2023-03-23T00:36:48;11.30;99.90
20777;DHT22;10548;47.504;8.248;2023-03-23T00:39:15;11.30;99.50
20777;DHT22;10548;47.504;8.248;2023-03-23T00:41:46;11.20;99.90
20777;DHT22;10548;47.504;8.248;2023-03-23T00:44:13;11.30;99.90
20777;DHT22;10548;47.504;8.248;2023-03-23T00:46:46;11.40;99.70
20777;DHT22;10548;47.504;8.248;2023-03-23T00:49:16;11.40;99.90
20777;DHT22;10548;47.504;8.248;2023-03-23T00:51:43;11.30;99.90
20777;DHT22;10548;47.504;8.248;2023-03-23T00:54:10;11.20;99.90
20777;DHT22;10548;47.504;8.248;2023-03-23T00:56:36;11.30;99.90
20777;DHT22;10548;47.504;8.248;2023-03-23T00:59:03;11.30;99.90
20777;DHT22;10548;47.504;8.248;2023-03-23T01:01:29;11.30;99.90
20777;DHT22;10548;47.504;8.248;2023-03-23T01:03:58;11.30;99.70
20777;DHT22;10548;47.504;8.248;2023-03-23T01:06:31;11.30;99.20
20777;DHT22;10548;47.504;8.248;2023-03-23T01:08:58;11.30;99.60
20777;DHT22;10548;47.504;8.248;2023-03-23T01:11:25;11.20;99.10
20777;DHT22;10548;47.504;8.248;2023-03-23T01:13:52;11.20;99.90
20777;DHT22;10548;47.504;8.248;2023-03-23T01:16:19;11.20;99.90
20777;DHT22;10548;47.504;8.248;2023-03-23T01:18:46;11.20;99.40
20777;DHT22;10548;47.504;8.248;2023-03-23T01:21:14;11.20;99.90
20777;DHT22;10548;47.504;8.248;2023-03-23T01:23:42;11.30;99.30
20777;DHT22;10548;47.504;8.248;2023-03-23T01:26:14;11.20;99.90
20777;DHT22;10548;47.504;8.248;2023-03-23T01:28:40;11.30;99.90
20777;DHT22;10548;47.504;8.248;2023-03-23T01:31:09;11.30;99.90
20777;DHT22;10548;47.504;8.248;2023-03-23T01:33:36;11.30;99.90
20777;DHT22;10548;47.504;8.248;2023-03-23T01:36:07;11.20;99.90
20777;DHT22;10548;47.504;8.248;2023-03-23T01:38:34;11.30;99.60
20777;DHT22;10548;47.504;8.248;2023-03-23T01:41:01;11.30;99.30
20777;DHT22;10548;47.504;8.248;2023-03-23T01:43:28;11.20;99.10
20777;DHT22;10548;47.504;8.248;2023-03-23T01:45:54;11.30;99.10
20777;DHT22;10548;47.504;8.248;2023-03-23T01:48:35;11.20;99.50
20777;DHT22;10548;47.504;8.248;2023-03-23T01:51:09;11.30;99.90
20777;DHT22;10548;47.504;8.248;2023-03-23T01:53:46;11.30;99.50
20777;DHT22;10548;47.504;8.248;2023-03-23T01:56:14;11.30;99.90
20777;DHT22;10548;47.504;8.248;2023-03-23T01:58:41;10.90;99.90
20777;DHT22;10548;47.504;8.248;2023-03-23T02:01:10;10.80;99.90
20777;DHT22;10548;47.504;8.248;2023-03-23T02:03:39;10.80;99.90
20777;DHT22;10548;47.504;8.248;2023-03-23T02:06:07;10.80;99.90
20777;DHT22;10548;47.504;8.248;2023-03-23T02:08:57;10.80;99.90
20777;DHT22;10548;47.504;8.248;2023-03-23T02:11:23;10.70;99.90
20777;DHT22;10548;47.504;8.248;2023-03-23T02:13:50;10.80;99.90
20777;DHT22;10548;47.504;8.248;2023-03-23T02:16:33;10.60;99.90
20777;DHT22;10548;47.504;8.248;2023-03-23T02:22:46;10.80;99.90
20777;DHT22;10548;47.504;8.248;2023-03-23T02:32:18;10.80;99.90
20777;DHT22;10548;47.504;8.248;2023-03-23T02:34:43;10.70;99.90
20777;DHT22;10548;47.504;8.248;2023-03-23T02:37:32;10.80;99.90
20777;DHT22;10548;47.504;8.248;2023-03-23T02:40:19;10.80;99.90
20777;DHT22;10548;47.504;8.248;2023-03-23T02:42:49;10.80;99.90
20777;DHT22;10548;47.504;8.248;2023-03-23T02:45:17;10.70;99.90
20777;DHT22;10548;47.504;8.248;2023-03-23T02:47:46;10.60;99.90
20777;DHT22;10548;47.504;8.248;2023-03-23T02:50:16;10.60;99.90
20777;DHT22;10548;47.504;8.248;2023-03-23T02:52:45;10.70;99.90
20777;DHT22;10548;47.504;8.248;2023-03-23T02:55:13;10.70;99.90
20777;DHT22;10548;47.504;8.248;2023-03-23T02:57:40;10.80;99.90
20777;DHT22;10548;47.504;8.248;2023-03-23T03:00:14;10.70;99.90
20777;DHT22;10548;47.504;8.248;2023-03-23T03:02:52;10.70;99.90
20777;DHT22;10548;47.504;8.248;2023-03-23T03:06:25;10.80;99.90
20777;DHT22;10548;47.504;8.248;2023-03-23T03:08:55;10.70;99.90
20777;DHT22;10548;47.504;8.248;2023-03-23T03:11:23;10.70;99.90
20777;DHT22;10548;47.504;8.248;2023-03-23T03:14:18;10.60;99.90
20777;DHT22;10548;47.504;8.248;2023-03-23T03:16:56;10.60;99.90
20777;DHT22;10548;47.504;8.248;2023-03-23T03:19:33;10.70;99.90
20777;DHT22;10548;47.504;8.248;2023-03-23T03:22:02;10.60;99.90
20777;DHT22;10548;47.504;8.248;2023-03-23T03:24:38;10.80;99.90
20777;DHT22;10548;47.504;8.248;2023-03-23T03:27:11;10.80;99.90
20777;DHT22;10548;47.504;8.248;2023-03-23T03:30:03;10.90;99.90
20777;DHT22;10548;47.504;8.248;2023-03-23T03:32:36;11.10;99.90
20777;DHT22;10548;47.504;8.248;2023-03-23T03:35:05;11.20;99.90
20777;DHT22;10548;47.504;8.248;2023-03-23T03:37:36;11.20;99.90
20777;DHT22;10548;47.504;8.248;2023-03-23T03:40:09;11.20;99.80
20777;DHT22;10548;47.504;8.248;2023-03-23T03:42:40;11.20;99.90
20777;DHT22;10548;47.504;8.248;2023-03-23T03:45:09;11.20;99.90
20777;DHT22;10548;47.504;8.248;2023-03-23T03:47:36;11.20;99.90
20777;DHT22;10548;47.504;8.248;2023-03-23T03:50:03;11.10;99.90
20777;DHT22;10548;47.504;8.248;2023-03-23T03:52:29;11.10;99.90
20777;DHT22;10548;47.504;8.248;2023-03-23T03:54:55;11.10;99.90
20777;DHT22;10548;47.504;8.248;2023-03-23T03:57:25;11.10;99.90
20777;DHT22;10548;47.504;8.248;2023-03-23T04:00:24;11.10;99.90
20777;DHT22;10548;47.504;8.248;2023-03-23T04:02:51;11.00;99.90
20777;DHT22;10548;47.504;8.248;2023-03-23T04:05:29;11.00;99.90
20777;DHT22;10548;47.504;8.248;2023-03-23T04:07:56;10.90;99.90
20777;DHT22;10548;47.504;8.248;2023-03-23T04:10:31;11.00;99.90
20777;DHT22;10548;47.504;8.248;2023-03-23T04:12:58;11.00;99.90
20777;DHT22;10548;47.504;8.248;2023-03-23T04:15:47;11.00;99.90
20777;DHT22;10548;47.504;8.248;2023-03-23T04:18:14;10.90;99.90
20777;DHT22;10548;47.504;8.248;2023-03-23T04:20:48;11.00;99.90
20777;DHT22;10548;47.504;8.248;2023-03-23T04:23:18;11.00;99.90
20777;DHT22;10548;47.504;8.248;2023-03-23T04:25:47;11.00;99.90
20777;DHT22;10548;47.504;8.248;2023-03-23T04:28:14;10.90;99.90
20777;DHT22;10548;47.504;8.248;2023-03-23T04:30:54;10.90;99.90
20777;DHT22;10548;47.504;8.248;2023-03-23T04:33:24;10.90;99.90
20777;DHT22;10548;47.504;8.248;2023-03-23T04:35:54;11.00;99.90
20777;DHT22;10548;47.504;8.248;2023-03-23T04:38:46;11.10;98.80
20777;DHT22;10548;47.504;8.248;2023-03-23T04:41:20;11.30;98.40
20777;DHT22;10548;47.504;8.248;2023-03-23T04:44:07;11.30;97.50
20777;DHT22;10548;47.504;8.248;2023-03-23T04:46:40;11.30;97.80
20777;DHT22;10548;47.504;8.248;2023-03-23T04:49:10;11.40;97.30
20777;DHT22;10548;47.504;8.248;2023-03-23T04:51:38;11.30;97.80
20777;DHT22;10548;47.504;8.248;2023-03-23T04:54:25;11.30;97.80
20777;DHT22;10548;47.504;8.248;2023-03-23T04:56:58;11.30;97.90
20777;DHT22;10548;47.504;8.248;2023-03-23T04:59:25;11.20;98.40
20777;DHT22;10548;47.504;8.248;2023-03-23T05:02:14;11.20;98.60
20777;DHT22;10548;47.504;8.248;2023-03-23T05:04:43;11.20;97.80
20777;DHT22;10548;47.504;8.248;2023-03-23T05:07:22;11.30;97.90
20777;DHT22;10548;47.504;8.248;2023-03-23T05:09:49;11.30;97.50
20777;DHT22;10548;47.504;8.248;2023-03-23T05:12:19;11.30;97.80
20777;DHT22;10548;47.504;8.248;2023-03-23T05:14:53;11.30;97.90
20777;DHT22;10548;47.504;8.248;2023-03-23T05:17:21;11.30;97.90
20777;DHT22;10548;47.504;8.248;2023-03-23T05:19:52;11.30;98.10
20777;DHT22;10548;47.504;8.248;2023-03-23T05:22:41;11.30;96.90
20777;DHT22;10548;47.504;8.248;2023-03-23T05:25:09;11.40;96.50
20777;DHT22;10548;47.504;8.248;2023-03-23T05:27:39;11.50;96.80
20777;DHT22;10548;47.504;8.248;2023-03-23T05:30:27;11.50;96.90
20777;DHT22;10548;47.504;8.248;2023-03-23T05:32:55;11.40;97.00
20777;DHT22;10548;47.504;8.248;2023-03-23T05:35:34;11.50;97.10
20777;DHT22;10548;47.504;8.248;2023-03-23T05:38:01;11.50;97.00
20777;DHT22;10548;47.504;8.248;2023-03-23T05:40:28;11.50;97.50
20777;DHT22;10548;47.504;8.248;2023-03-23T05:43:01;11.40;97.90
20777;DHT22;10548;47.504;8.248;2023-03-23T05:45:41;11.60;95.70
20777;DHT22;10548;47.504;8.248;2023-03-23T05:48:07;11.90;93.30
20777;DHT22;10548;47.504;8.248;2023-03-23T05:50:35;11.90;93.70
20777;DHT22;10548;47.504;8.248;2023-03-23T05:53:02;11.80;94.30
20777;DHT22;10548;47.504;8.248;2023-03-23T05:55:32;11.90;94.30
20777;DHT22;10548;47.504;8.248;2023-03-23T05:58:10;11.90;94.30
20777;DHT22;10548;47.504;8.248;2023-03-23T06:00:39;11.90;94.20
20777;DHT22;10548;47.504;8.248;2023-03-23T06:03:19;12.00;92.70
20777;DHT22;10548;47.504;8.248;2023-03-23T06:06:15;12.10;91.80
20777;DHT22;10548;47.504;8.248;2023-03-23T06:08:56;12.10;92.10
20777;DHT22;10548;47.504;8.248;2023-03-23T06:11:38;12.20;91.10
20777;DHT22;10548;47.504;8.248;2023-03-23T06:14:33;12.30;90.30
20777;DHT22;10548;47.504;8.248;2023-03-23T06:17:00;12.30;91.40
20777;DHT22;10548;47.504;8.248;2023-03-23T06:19:26;12.40;90.70
20777;DHT22;10548;47.504;8.248;2023-03-23T06:22:02;12.40;90.80
20777;DHT22;10548;47.504;8.248;2023-03-23T06:24:49;12.40;91.00
20777;DHT22;10548;47.504;8.248;2023-03-23T06:27:23;12.40;91.50
20777;DHT22;10548;47.504;8.248;2023-03-23T06:29:49;12.50;91.10
20777;DHT22;10548;47.504;8.248;2023-03-23T06:32:15;12.60;91.30
20777;DHT22;10548;47.504;8.248;2023-03-23T06:34:43;12.60;90.70
20777;DHT22;10548;47.504;8.248;2023-03-23T06:37:29;12.70;90.50
20777;DHT22;10548;47.504;8.248;2023-03-23T06:40:05;12.80;91.50
20777;DHT22;10548;47.504;8.248;2023-03-23T06:42:37;12.90;86.00
20777;DHT22;10548;47.504;8.248;2023-03-23T06:45:21;12.90;86.10
20777;DHT22;10548;47.504;8.248;2023-03-23T06:47:52;13.00;84.30
20777;DHT22;10548;47.504;8.248;2023-03-23T06:50:18;13.10;83.90
20777;DHT22;10548;47.504;8.248;2023-03-23T06:52:46;13.20;83.00
20777;DHT22;10548;47.504;8.248;2023-03-23T06:55:13;13.30;83.80
20777;DHT22;10548;47.504;8.248;2023-03-23T06:57:40;13.20;83.50
20777;DHT22;10548;47.504;8.248;2023-03-23T07:00:07;13.30;81.40
20777;DHT22;10548;47.504;8.248;2023-03-23T07:02:41;13.50;83.10
20777;DHT22;10548;47.504;8.248;2023-03-23T07:05:09;13.50;79.90
20777;DHT22;10548;47.504;8.248;2023-03-23T07:07:37;13.50;80.30
20777;DHT22;10548;47.504;8.248;2023-03-23T07:10:25;13.40;80.90
20777;DHT22;10548;47.504;8.248;2023-03-23T07:12:51;13.40;79.10
20777;DHT22;10548;47.504;8.248;2023-03-23T07:15:17;13.50;80.50
20777;DHT22;10548;47.504;8.248;2023-03-23T07:17:49;13.50;79.90
20777;DHT22;10548;47.504;8.248;2023-03-23T07:20:21;13.50;78.90
20777;DHT22;10548;47.504;8.248;2023-03-23T07:22:47;13.60;77.20
20777;DHT22;10548;47.504;8.248;2023-03-23T07:25:35;13.70;78.00
20777;DHT22;10548;47.504;8.248;2023-03-23T07:28:02;13.90;78.90
20777;DHT22;10548;47.504;8.248;2023-03-23T07:30:29;14.00;75.60
20777;DHT22;10548;47.504;8.248;2023-03-23T07:32:56;13.80;75.40
20777;DHT22;10548;47.504;8.248;2023-03-23T07:35:24;13.90;76.30
20777;DHT22;10548;47.504;8.248;2023-03-23T07:38:02;13.90;74.30
20777;DHT22;10548;47.504;8.248;2023-03-23T07:40:29;13.80;74.10
20777;DHT22;10548;47.504;8.248;2023-03-23T07:43:03;13.80;73.40
20777;DHT22;10548;47.504;8.248;2023-03-23T07:45:40;13.90;75.00
20777;DHT22;10548;47.504;8.248;2023-03-23T07:48:07;13.90;73.30
20777;DHT22;10548;47.504;8.248;2023-03-23T07:50:33;13.90;74.30
20777;DHT22;10548;47.504;8.248;2023-03-23T07:53:05;13.90;73.10
20777;DHT22;10548;47.504;8.248;2023-03-23T07:55:33;14.00;72.80
20777;DHT22;10548;47.504;8.248;2023-03-23T07:58:22;14.00;71.40
20777;DHT22;10548;47.504;8.248;2023-03-23T08:00:53;14.10;70.30
20777;DHT22;10548;47.504;8.248;2023-03-23T08:03:22;14.10;70.00
20777;DHT22;10548;47.504;8.248;2023-03-23T08:06:08;14.20;68.90
20777;DHT22;10548;47.504;8.248;2023-03-23T08:08:49;14.40;71.10
20777;DHT22;10548;47.504;8.248;2023-03-23T08:11:34;14.50;69.00
20777;DHT22;10548;47.504;8.248;2023-03-23T08:14:20;14.60;69.00
20777;DHT22;10548;47.504;8.248;2023-03-23T08:16:59;14.50;70.10
20777;DHT22;10548;47.504;8.248;2023-03-23T08:19:36;14.40;67.40
20777;DHT22;10548;47.504;8.248;2023-03-23T08:22:22;14.40;69.30
20777;DHT22;10548;47.504;8.248;2023-03-23T08:25:15;14.70;67.60
20777;DHT22;10548;47.504;8.248;2023-03-23T08:28:01;14.90;68.60
20777;DHT22;10548;47.504;8.248;2023-03-23T08:30:41;15.10;67.10
20777;DHT22;10548;47.504;8.248;2023-03-23T08:33:38;15.10;64.40
20777;DHT22;10548;47.504;8.248;2023-03-23T08:36:22;14.90;64.80
20777;DHT22;10548;47.504;8.248;2023-03-23T08:39:12;14.90;66.00
20777;DHT22;10548;47.504;8.248;2023-03-23T08:42:09;14.80;64.10
20777;DHT22;10548;47.504;8.248;2023-03-23T08:45:12;14.70;66.90
20777;DHT22;10548;47.504;8.248;2023-03-23T08:48:09;14.80;66.50
20777;DHT22;10548;47.504;8.248;2023-03-23T08:51:17;14.80;66.00
20777;DHT22;10548;47.504;8.248;2023-03-23T08:54:04;15.00;65.30
20777;DHT22;10548;47.504;8.248;2023-03-23T08:56:45;15.10;66.00
20777;DHT22;10548;47.504;8.248;2023-03-23T08:59:50;15.10;64.90
20777;DHT22;10548;47.504;8.248;2023-03-23T09:02:50;15.20;65.60
20777;DHT22;10548;47.504;8.248;2023-03-23T09:05:24;15.20;65.10
20777;DHT22;10548;47.504;8.248;2023-03-23T09:08:15;15.20;64.00
20777;DHT22;10548;47.504;8.248;2023-03-23T09:10:41;15.40;64.90
20777;DHT22;10548;47.504;8.248;2023-03-23T09:13:07;15.20;62.00
20777;DHT22;10548;47.504;8.248;2023-03-23T09:15:33;15.40;64.90
20777;DHT22;10548;47.504;8.248;2023-03-23T09:17:59;15.20;63.20
20777;DHT22;10548;47.504;8.248;2023-03-23T09:20:27;15.30;63.60
20777;DHT22;10548;47.504;8.248;2023-03-23T09:22:55;15.30;64.30
20777;DHT22;10548;47.504;8.248;2023-03-23T09:25:23;15.30;61.40
20777;DHT22;10548;47.504;8.248;2023-03-23T09:27:54;15.50;62.10
20777;DHT22;10548;47.504;8.248;2023-03-23T09:30:32;15.90;62.80
20777;DHT22;10548;47.504;8.248;2023-03-23T09:33:03;16.20;58.80
20777;DHT22;10548;47.504;8.248;2023-03-23T09:35:31;16.20;59.80
20777;DHT22;10548;47.504;8.248;2023-03-23T09:37:58;16.70;58.90
20777;DHT22;10548;47.504;8.248;2023-03-23T09:40:41;16.20;59.60
20777;DHT22;10548;47.504;8.248;2023-03-23T09:43:28;16.00;58.00
20777;DHT22;10548;47.504;8.248;2023-03-23T09:46:42;16.10;57.80
20777;DHT22;10548;47.504;8.248;2023-03-23T09:49:21;16.30;58.80
20777;DHT22;10548;47.504;8.248;2023-03-23T09:52:03;16.40;61.30
20777;DHT22;10548;47.504;8.248;2023-03-23T09:54:42;16.70;58.60
20777;DHT22;10548;47.504;8.248;2023-03-23T09:57:16;16.80;57.70
20777;DHT22;10548;47.504;8.248;2023-03-23T10:00:21;16.50;57.00
20777;DHT22;10548;47.504;8.248;2023-03-23T10:03:16;16.20;56.10
20777;DHT22;10548;47.504;8.248;2023-03-23T10:05:50;16.10;56.60
20777;DHT22;10548;47.504;8.248;2023-03-23T10:08:20;16.20;57.60
20777;DHT22;10548;47.504;8.248;2023-03-23T10:11:12;16.40;56.80
20777;DHT22;10548;47.504;8.248;2023-03-23T10:16:55;16.50;57.10
20777;DHT22;10548;47.504;8.248;2023-03-23T10:22:22;16.60;58.10
20777;DHT22;10548;47.504;8.248;2023-03-23T10:28:01;17.20;57.30
20777;DHT22;10548;47.504;8.248;2023-03-23T10:30:40;16.90;57.80
20777;DHT22;10548;47.504;8.248;2023-03-23T10:33:25;17.20;55.40
20777;DHT22;10548;47.504;8.248;2023-03-23T10:36:10;17.00;55.90
20777;DHT22;10548;47.504;8.248;2023-03-23T10:41:34;16.70;57.00
20777;DHT22;10548;47.504;8.248;2023-03-23T10:44:00;16.90;57.20
20777;DHT22;10548;47.504;8.248;2023-03-23T10:48:28;17.30;57.20
20777;DHT22;10548;47.504;8.248;2023-03-23T10:49:42;17.40;56.50
20777;DHT22;10548;47.504;8.248;2023-03-23T10:52:39;17.10;57.20
20777;DHT22;10548;47.504;8.248;2023-03-23T10:55:14;17.30;57.00
20777;DHT22;10548;47.504;8.248;2023-03-23T10:57:44;17.30;57.00
20777;DHT22;10548;47.504;8.248;2023-03-23T11:00:24;17.20;56.50
20777;DHT22;10548;47.504;8.248;2023-03-23T11:03:07;17.30;56.30
20777;DHT22;10548;47.504;8.248;2023-03-23T11:06:01;17.20;56.60
20777;DHT22;10548;47.504;8.248;2023-03-23T11:08:32;17.10;56.90
20777;DHT22;10548;47.504;8.248;2023-03-23T11:11:36;17.00;57.30
20777;DHT22;10548;47.504;8.248;2023-03-23T11:14:35;17.00;57.60
20777;DHT22;10548;47.504;8.248;2023-03-23T11:17:19;16.90;57.60
20777;DHT22;10548;47.504;8.248;2023-03-23T11:19:46;16.90;58.70
20777;DHT22;10548;47.504;8.248;2023-03-23T11:22:32;16.90;57.70
20777;DHT22;10548;47.504;8.248;2023-03-23T11:25:04;17.10;56.30
20777;DHT22;10548;47.504;8.248;2023-03-23T11:27:32;17.40;58.60
20777;DHT22;10548;47.504;8.248;2023-03-23T11:30:10;17.20;57.60
20777;DHT22;10548;47.504;8.248;2023-03-23T11:32:37;17.20;57.50
20777;DHT22;10548;47.504;8.248;2023-03-23T11:35:06;17.10;57.30
20777;DHT22;10548;47.504;8.248;2023-03-23T11:37:40;16.90;57.40
20777;DHT22;10548;47.504;8.248;2023-03-23T11:40:18;16.80;58.90
20777;DHT22;10548;47.504;8.248;2023-03-23T11:43:09;16.60;59.80
20777;DHT22;10548;47.504;8.248;2023-03-23T11:45:45;16.90;58.90
20777;DHT22;10548;47.504;8.248;2023-03-23T11:48:20;16.90;61.00
20777;DHT22;10548;47.504;8.248;2023-03-23T11:51:16;16.80;59.00
20777;DHT22;10548;47.504;8.248;2023-03-23T11:54:13;17.00;57.50
20777;DHT22;10548;47.504;8.248;2023-03-23T11:56:43;17.20;57.30
20777;DHT22;10548;47.504;8.248;2023-03-23T11:59:17;17.20;57.40
20777;DHT22;10548;47.504;8.248;2023-03-23T12:02:03;17.00;57.20
20777;DHT22;10548;47.504;8.248;2023-03-23T12:08:14;17.30;56.80
20777;DHT22;10548;47.504;8.248;2023-03-23T12:12:03;17.40;57.10
20777;DHT22;10548;47.504;8.248;2023-03-23T12:14:27;17.30;54.60
20777;DHT22;10548;47.504;8.248;2023-03-23T12:20:21;17.40;56.90
20777;DHT22;10548;47.504;8.248;2023-03-23T12:23:23;17.70;55.00
20777;DHT22;10548;47.504;8.248;2023-03-23T12:26:05;17.80;56.00
20777;DHT22;10548;47.504;8.248;2023-03-23T12:29:04;17.90;55.40
20777;DHT22;10548;47.504;8.248;2023-03-23T12:32:37;18.00;57.60
20777;DHT22;10548;47.504;8.248;2023-03-23T12:41:00;17.80;52.00
20777;DHT22;10548;47.504;8.248;2023-03-23T12:50:27;17.70;58.00
20777;DHT22;10548;47.504;8.248;2023-03-23T12:53:18;17.80;60.00
20777;DHT22;10548;47.504;8.248;2023-03-23T12:56:06;17.90;58.10
20777;DHT22;10548;47.504;8.248;2023-03-23T12:58:41;18.00;55.10
20777;DHT22;10548;47.504;8.248;2023-03-23T13:04:07;17.90;51.20
20777;DHT22;10548;47.504;8.248;2023-03-23T13:06:39;17.80;52.70
20777;DHT22;10548;47.504;8.248;2023-03-23T13:09:38;17.70;54.80
20777;DHT22;10548;47.504;8.248;2023-03-23T13:12:05;17.60;53.70
20777;DHT22;10548;47.504;8.248;2023-03-23T13:14:53;17.80;54.70
20777;DHT22;10548;47.504;8.248;2023-03-23T13:18:00;17.80;56.40
20777;DHT22;10548;47.504;8.248;2023-03-23T13:21:24;17.70;52.60
20777;DHT22;10548;47.504;8.248;2023-03-23T13:23:36;17.70;52.60
20777;DHT22;10548;47.504;8.248;2023-03-23T13:26:07;17.80;49.80
20777;DHT22;10548;47.504;8.248;2023-03-23T13:31:36;17.80;49.40
20777;DHT22;10548;47.504;8.248;2023-03-23T13:34:18;17.80;49.70
20777;DHT22;10548;47.504;8.248;2023-03-23T13:36:54;17.90;49.50
20777;DHT22;10548;47.504;8.248;2023-03-23T13:39:27;17.90;48.90
20777;DHT22;10548;47.504;8.248;2023-03-23T13:42:18;17.90;48.70
20777;DHT22;10548;47.504;8.248;2023-03-23T13:48:39;17.90;53.80
20777;DHT22;10548;47.504;8.248;2023-03-23T13:51:33;18.00;55.20
20777;DHT22;10548;47.504;8.248;2023-03-23T13:54:20;18.00;56.50
20777;DHT22;10548;47.504;8.248;2023-03-23T13:57:02;17.90;56.20
20777;DHT22;10548;47.504;8.248;2023-03-23T13:59:48;17.70;56.80
20777;DHT22;10548;47.504;8.248;2023-03-23T14:02:34;17.70;55.10
20777;DHT22;10548;47.504;8.248;2023-03-23T14:05:35;18.00;53.20
20777;DHT22;10548;47.504;8.248;2023-03-23T14:08:14;17.80;51.60
20777;DHT22;10548;47.504;8.248;2023-03-23T14:10:56;17.80;52.80
20777;DHT22;10548;47.504;8.248;2023-03-23T14:14:04;17.80;52.20
20777;DHT22;10548;47.504;8.248;2023-03-23T14:16:44;17.70;53.90
20777;DHT22;10548;47.504;8.248;2023-03-23T14:19:23;17.70;53.70
20777;DHT22;10548;47.504;8.248;2023-03-23T14:22:01;17.70;51.20
20777;DHT22;10548;47.504;8.248;2023-03-23T14:24:33;17.80;51.80
20777;DHT22;10548;47.504;8.248;2023-03-23T14:27:22;17.70;54.70
20777;DHT22;10548;47.504;8.248;2023-03-23T14:30:08;17.70;54.00
20777;DHT22;10548;47.504;8.248;2023-03-23T14:32:38;17.80;54.10
20777;DHT22;10548;47.504;8.248;2023-03-23T14:35:23;17.80;53.30
20777;DHT22;10548;47.504;8.248;2023-03-23T14:37:51;17.80;52.40
20777;DHT22;10548;47.504;8.248;2023-03-23T14:40:18;17.80;50.60
20777;DHT22;10548;47.504;8.248;2023-03-23T14:42:44;17.70;52.10
20777;DHT22;10548;47.504;8.248;2023-03-23T14:45:15;17.70;53.10
20777;DHT22;10548;47.504;8.248;2023-03-23T14:48:02;17.70;53.80
20777;DHT22;10548;47.504;8.248;2023-03-23T14:50:40;17.50;54.60
20777;DHT22;10548;47.504;8.248;2023-03-23T14:53:21;17.30;55.00
20777;DHT22;10548;47.504;8.248;2023-03-23T14:55:49;17.10;56.00
20777;DHT22;10548;47.504;8.248;2023-03-23T14:58:19;17.10;54.60
20777;DHT22;10548;47.504;8.248;2023-03-23T15:01:02;17.10;56.20
20777;DHT22;10548;47.504;8.248;2023-03-23T15:03:35;17.20;54.10
20777;DHT22;10548;47.504;8.248;2023-03-23T15:06:06;17.20;54.30
20777;DHT22;10548;47.504;8.248;2023-03-23T15:08:34;17.20;52.20
20777;DHT22;10548;47.504;8.248;2023-03-23T15:11:26;17.20;53.70
20777;DHT22;10548;47.504;8.248;2023-03-23T15:13:55;17.20;54.80
20777;DHT22;10548;47.504;8.248;2023-03-23T15:16:30;17.20;52.80
20777;DHT22;10548;47.504;8.248;2023-03-23T15:19:05;17.20;52.30
20777;DHT22;10548;47.504;8.248;2023-03-23T15:21:34;17.20;53.80
20777;DHT22;10548;47.504;8.248;2023-03-23T15:24:02;17.10;54.70
20777;DHT22;10548;47.504;8.248;2023-03-23T15:26:34;17.10;55.10
20777;DHT22;10548;47.504;8.248;2023-03-23T15:29:22;17.10;54.40
20777;DHT22;10548;47.504;8.248;2023-03-23T15:31:55;17.30;51.30
20777;DHT22;10548;47.504;8.248;2023-03-23T15:34:33;17.20;53.00
20777;DHT22;10548;47.504;8.248;2023-03-23T15:37:13;17.20;53.70
20777;DHT22;10548;47.504;8.248;2023-03-23T15:39:44;17.20;53.00
20777;DHT22;10548;47.504;8.248;2023-03-23T15:42:23;17.10;53.70
20777;DHT22;10548;47.504;8.248;2023-03-23T15:45:58;17.20;52.30
20777;DHT22;10548;47.504;8.248;2023-03-23T15:47:53;17.20;51.90
20777;DHT22;10548;47.504;8.248;2023-03-23T15:50:48;17.10;52.90
20777;DHT22;10548;47.504;8.248;2023-03-23T15:53:30;17.10;51.90
20777;DHT22;10548;47.504;8.248;2023-03-23T15:55:59;17.10;52.60
20777;DHT22;10548;47.504;8.248;2023-03-23T15:58:27;17.10;52.30
20777;DHT22;10548;47.504;8.248;2023-03-23T16:00:54;17.10;51.20
20777;DHT22;10548;47.504;8.248;2023-03-23T16:03:40;17.20;52.00
20777;DHT22;10548;47.504;8.248;2023-03-23T16:06:12;17.10;50.90
20777;DHT22;10548;47.504;8.248;2023-03-23T16:08:52;17.20;50.30
20777;DHT22;10548;47.504;8.248;2023-03-23T16:11:21;17.10;51.60
20777;DHT22;10548;47.504;8.248;2023-03-23T16:13:49;17.10;52.50
20777;DHT22;10548;47.504;8.248;2023-03-23T16:16:20;17.00;52.00
20777;DHT22;10548;47.504;8.248;2023-03-23T16:18:48;17.10;50.90
20777;DHT22;10548;47.504;8.248;2023-03-23T16:21:15;17.10;51.20
20777;DHT22;10548;47.504;8.248;2023-03-23T16:23:42;16.90;52.10
20777;DHT22;10548;47.504;8.248;2023-03-23T16:26:13;16.90;51.30
20777;DHT22;10548;47.504;8.248;2023-03-23T16:28:41;17.00;51.70
20777;DHT22;10548;47.504;8.248;2023-03-23T16:31:09;16.80;54.20
20777;DHT22;10548;47.504;8.248;2023-03-23T16:33:36;16.80;52.80
20777;DHT22;10548;47.504;8.248;2023-03-23T16:36:04;16.90;52.20
20777;DHT22;10548;47.504;8.248;2023-03-23T16:38:31;16.90;51.80
20777;DHT22;10548;47.504;8.248;2023-03-23T16:41:15;16.80;53.10
20777;DHT22;10548;47.504;8.248;2023-03-23T16:43:42;16.70;53.40
20777;DHT22;10548;47.504;8.248;2023-03-23T16:46:11;16.80;53.10
20777;DHT22;10548;47.504;8.248;2023-03-23T16:48:39;16.70;52.30
20777;DHT22;10548;47.504;8.248;2023-03-23T16:51:07;16.80;53.50
20777;DHT22;10548;47.504;8.248;2023-03-23T16:53:34;16.70;53.90
20777;DHT22;10548;47.504;8.248;2023-03-23T16:56:03;16.60;54.30
20777;DHT22;10548;47.504;8.248;2023-03-23T16:58:30;16.60;54.60
20777;DHT22;10548;47.504;8.248;2023-03-23T17:00:57;16.50;54.40
20777;DHT22;10548;47.504;8.248;2023-03-23T17:03:25;16.50;54.80
20777;DHT22;10548;47.504;8.248;2023-03-23T17:05:52;16.70;53.60
20777;DHT22;10548;47.504;8.248;2023-03-23T17:08:20;16.60;54.40
20777;DHT22;10548;47.504;8.248;2023-03-23T17:10:47;16.60;53.60
20777;DHT22;10548;47.504;8.248;2023-03-23T17:13:15;16.50;54.10
20777;DHT22;10548;47.504;8.248;2023-03-23T17:15:44;16.50;54.40
20777;DHT22;10548;47.504;8.248;2023-03-23T17:18:14;16.40;55.30